createdAt,value
2017-10-23T00:01:20.838Z,100781.75
2017-10-23T00:03:48.416Z,100781.69
2017-10-23T00:06:15.932Z,100782.37
2017-10-23T00:08:43.416Z,100785.00
2017-10-23T00:11:10.907Z,100788.16
2017-10-23T00:13:38.444Z,100784.87
2017-10-23T00:16:05.924Z,100790.70
2017-10-23T00:18:33.408Z,100789.16
2017-10-23T00:21:01.016Z,100790.36
2017-10-23T00:23:28.541Z,100790.64
2017-10-23T00:25:56.043Z,100794.18
2017-10-23T00:28:23.600Z,100787.46
2017-10-23T00:30:51.088Z,100799.10
2017-10-23T00:33:18.583Z,100789.61
2017-10-23T00:35:46.274Z,100787.17
2017-10-23T00:38:13.840Z,100789.44
2017-10-23T00:40:41.333Z,100788.16
2017-10-23T00:43:09.155Z,100780.86
2017-10-23T00:45:36.649Z,100782.09
2017-10-23T00:48:04.133Z,100786.06
2017-10-23T00:50:31.652Z,100787.73
2017-10-23T00:52:59.141Z,100783.89
2017-10-23T00:55:26.649Z,100784.55
2017-10-23T00:57:54.185Z,100786.00
2017-10-23T01:00:21.674Z,100784.30
2017-10-23T01:02:49.163Z,100776.76
2017-10-23T01:05:16.685Z,100779.87
2017-10-23T01:07:44.180Z,100776.56
2017-10-23T01:10:11.671Z,100774.39
2017-10-23T01:12:39.279Z,100775.02
2017-10-23T01:15:06.777Z,100778.68
2017-10-23T01:17:34.268Z,100776.24
2017-10-23T01:20:01.794Z,100781.73
2017-10-23T01:22:29.398Z,100778.99
2017-10-23T01:24:56.891Z,100774.39
2017-10-23T01:27:24.422Z,100781.80
2017-10-23T01:29:51.915Z,100782.34
2017-10-23T01:32:19.415Z,100783.34
2017-10-23T01:34:46.988Z,100782.27
2017-10-23T01:37:14.483Z,100782.39
2017-10-23T01:39:41.980Z,100790.05
2017-10-23T01:42:09.504Z,100791.04
2017-10-23T01:44:36.992Z,100783.15
2017-10-23T01:47:04.476Z,100791.69
2017-10-23T01:49:32.010Z,100786.42
2017-10-23T01:51:59.497Z,100784.12
2017-10-23T01:54:27.048Z,100793.07
2017-10-23T01:56:54.588Z,100798.38
2017-10-23T01:59:22.089Z,100802.98
2017-10-23T02:01:49.580Z,100800.45
2017-10-23T02:04:17.097Z,100805.95
2017-10-23T02:06:44.746Z,100806.96
2017-10-23T02:09:12.257Z,100806.14
2017-10-23T02:11:39.889Z,100808.66
2017-10-23T02:14:07.425Z,100811.09
2017-10-23T02:16:34.983Z,100812.25
2017-10-23T02:19:02.486Z,100815.16
2017-10-23T02:21:30.098Z,100820.17
2017-10-23T02:23:57.584Z,100824.41
2017-10-23T02:26:25.111Z,100828.78
2017-10-23T02:28:52.627Z,100830.97
2017-10-23T02:31:20.119Z,100829.08
2017-10-23T02:33:47.638Z,100831.25
2017-10-23T02:36:15.134Z,100830.55
2017-10-23T02:38:42.630Z,100830.30
2017-10-23T02:41:10.372Z,100835.23
2017-10-23T02:43:37.923Z,100835.64
2017-10-23T02:46:05.413Z,100832.45
2017-10-23T02:48:32.948Z,100835.43
2017-10-23T02:51:00.439Z,100833.76
2017-10-23T02:53:27.932Z,100832.11
2017-10-23T02:55:55.464Z,100843.91
2017-10-23T02:58:22.957Z,100842.96
2017-10-23T03:00:50.456Z,100847.31
2017-10-23T03:03:17.987Z,100841.29
2017-10-23T03:05:45.474Z,100845.09
2017-10-23T03:08:12.956Z,100843.59
2017-10-23T03:10:40.488Z,100844.01
2017-10-23T03:13:07.976Z,100841.49
2017-10-23T03:15:35.474Z,100840.28
2017-10-23T03:18:03.033Z,100839.03
2017-10-23T03:20:30.526Z,100836.75
2017-10-23T03:22:58.015Z,100839.70
2017-10-23T03:25:25.632Z,100838.23
2017-10-23T03:27:53.175Z,100845.12
2017-10-23T03:30:20.666Z,100847.04
2017-10-23T03:32:48.186Z,100849.48
2017-10-23T03:35:15.693Z,100847.02
2017-10-23T03:37:43.186Z,100852.63
2017-10-23T03:40:10.717Z,100853.52
2017-10-23T03:42:38.223Z,100850.81
2017-10-23T03:45:05.717Z,100858.07
2017-10-23T03:47:33.349Z,100859.36
2017-10-23T03:50:00.841Z,100861.70
2017-10-23T03:52:28.348Z,100867.40
2017-10-23T03:54:55.908Z,100867.96
2017-10-23T03:57:23.486Z,100875.11
2017-10-23T03:59:50.978Z,100869.42
2017-10-23T04:02:18.487Z,100872.80
2017-10-23T04:04:45.979Z,100875.06
2017-10-23T04:07:13.506Z,100877.83
2017-10-23T04:09:40.989Z,100881.23
2017-10-23T04:12:08.483Z,100880.58
2017-10-23T04:14:36.036Z,100886.25
2017-10-23T04:17:03.562Z,100892.31
2017-10-23T04:19:31.048Z,100889.61
2017-10-23T04:21:58.537Z,100894.33
2017-10-23T04:24:26.053Z,100900.80
2017-10-23T04:26:53.563Z,100899.13
2017-10-23T04:29:21.153Z,100893.00
2017-10-23T04:31:48.643Z,100897.89
2017-10-23T04:34:16.138Z,100898.09
2017-10-23T04:36:43.653Z,100891.37
2017-10-23T04:39:11.137Z,100890.80
2017-10-23T04:41:38.740Z,100891.49
2017-10-23T04:44:06.293Z,100897.70
2017-10-23T04:46:33.784Z,100896.00
2017-10-23T04:49:01.304Z,100891.81
2017-10-23T04:51:28.827Z,100889.69
2017-10-23T04:53:56.319Z,100892.30
2017-10-23T04:56:23.876Z,100893.98
2017-10-23T04:58:51.404Z,100896.16
2017-10-23T05:01:18.907Z,100897.19
2017-10-23T05:03:46.400Z,100902.02
2017-10-23T05:06:14.016Z,100900.09
2017-10-23T05:08:41.511Z,100903.38
2017-10-23T05:11:09.003Z,100902.69
2017-10-23T05:13:36.531Z,100901.58
2017-10-23T05:16:04.020Z,100902.86
2017-10-23T05:18:31.545Z,100905.16
2017-10-23T05:20:59.078Z,100905.86
2017-10-23T05:23:26.572Z,100911.87
2017-10-23T05:25:54.065Z,100913.19
2017-10-23T05:28:21.638Z,100916.71
2017-10-23T05:30:49.127Z,100925.83
2017-10-23T05:33:16.675Z,100924.47
2017-10-23T05:35:44.233Z,100927.23
2017-10-23T05:38:11.719Z,100930.67
2017-10-23T05:40:39.245Z,100932.97
2017-10-23T05:43:06.737Z,100931.09
2017-10-23T05:45:34.233Z,100935.23
2017-10-23T05:48:01.772Z,100937.40
2017-10-23T05:50:29.282Z,100938.97
2017-10-23T05:52:56.776Z,100941.92
2017-10-23T05:55:24.299Z,100944.02
2017-10-23T05:57:51.789Z,100948.41
2017-10-23T06:00:19.276Z,100951.85
2017-10-23T06:02:46.811Z,100951.44
2017-10-23T06:05:14.323Z,100955.09
2017-10-23T06:07:41.837Z,100952.88
2017-10-23T06:10:09.331Z,100953.08
2017-10-23T06:12:37.001Z,100960.75
2017-10-23T06:15:04.495Z,100961.78
2017-10-23T06:17:32.007Z,100967.03
2017-10-23T06:19:59.539Z,100965.67
2017-10-23T06:22:27.132Z,100968.39
2017-10-23T06:24:54.630Z,100971.88
2017-10-23T06:27:22.145Z,100973.41
2017-10-23T06:29:49.673Z,100970.23
2017-10-23T06:32:17.173Z,100975.94
2017-10-23T06:34:44.712Z,100979.03
2017-10-23T06:37:12.210Z,100979.92
2017-10-23T06:39:39.705Z,100987.52
2017-10-23T06:42:07.508Z,100978.28
2017-10-23T06:44:35.061Z,100986.16
2017-10-23T06:47:02.618Z,100980.13
2017-10-23T06:49:30.271Z,100985.38
2017-10-23T06:51:57.772Z,100983.94
2017-10-23T06:54:25.265Z,100985.78
2017-10-23T06:56:52.957Z,100988.56
2017-10-23T06:59:20.538Z,100986.79
2017-10-23T07:01:48.037Z,100993.16
2017-10-23T07:04:15.572Z,100994.52
2017-10-23T07:06:43.161Z,100995.87
2017-10-23T07:09:10.763Z,100996.45
2017-10-23T07:11:38.353Z,100990.53
2017-10-23T07:14:05.845Z,100992.75
2017-10-23T07:16:33.440Z,100994.97
2017-10-23T07:19:00.996Z,101002.83
2017-10-23T07:21:28.532Z,100997.73
2017-10-23T07:23:56.030Z,101001.31
2017-10-23T07:26:23.699Z,100999.38
2017-10-23T07:28:51.216Z,101004.80
2017-10-23T07:31:18.706Z,101006.08
2017-10-23T07:33:46.248Z,101012.11
2017-10-23T07:36:13.741Z,101011.57
2017-10-23T07:38:41.233Z,101002.05
2017-10-23T07:41:09.247Z,101007.39
2017-10-23T07:43:36.739Z,101011.52
2017-10-23T07:46:04.234Z,101007.13
2017-10-23T07:48:31.754Z,101004.08
2017-10-23T07:50:59.255Z,101009.05
2017-10-23T07:53:26.906Z,101010.08
2017-10-23T07:55:54.404Z,101013.42
2017-10-23T07:58:21.948Z,101007.73
2017-10-23T08:00:49.506Z,101009.30
2017-10-23T08:03:17.004Z,101001.25
2017-10-23T08:05:44.500Z,101005.70
2017-10-23T08:08:12.015Z,101013.09
2017-10-23T08:13:13.327Z,101013.16
2017-10-23T08:15:40.828Z,101014.78
2017-10-23T08:18:08.321Z,101012.12
2017-10-23T08:20:35.853Z,101010.72
2017-10-23T08:23:03.348Z,101013.95
2017-10-23T08:25:30.840Z,101013.43
2017-10-23T08:27:58.386Z,101018.78
2017-10-23T08:30:25.884Z,101019.06
2017-10-23T08:32:53.372Z,101015.22
2017-10-23T08:35:20.914Z,101017.91
2017-10-23T08:37:48.444Z,101015.34
2017-10-23T08:40:15.934Z,101015.36
2017-10-23T08:42:43.442Z,101015.36
2017-10-23T08:45:10.966Z,101023.00
2017-10-23T08:47:38.460Z,101017.32
2017-10-23T08:50:06.000Z,101024.77
2017-10-23T08:52:33.493Z,101021.88
2017-10-23T08:55:01.000Z,101020.44
2017-10-23T08:57:28.529Z,101016.97
2017-10-23T08:59:56.018Z,101025.33
2017-10-23T09:02:23.512Z,101024.81
2017-10-23T09:04:51.068Z,101024.59
2017-10-23T09:07:18.572Z,101024.91
2017-10-23T09:09:46.063Z,101028.23
2017-10-23T09:12:13.706Z,101030.27
2017-10-23T09:14:41.198Z,101025.88
2017-10-23T09:17:08.691Z,101024.84
2017-10-23T09:19:36.212Z,101019.48
2017-10-23T09:22:03.742Z,101022.97
2017-10-23T09:24:31.278Z,101025.27
2017-10-23T09:26:58.765Z,101026.89
2017-10-23T09:29:26.293Z,101027.98
2017-10-23T09:31:53.840Z,101027.43
2017-10-23T09:34:21.336Z,101032.59
2017-10-23T09:36:48.843Z,101031.51
2017-10-23T09:39:16.379Z,101033.81
2017-10-23T09:41:43.879Z,101034.00
2017-10-23T09:44:11.421Z,101040.58
2017-10-23T09:46:38.911Z,101037.59
2017-10-23T09:49:06.400Z,101037.98
2017-10-23T09:51:33.944Z,101045.29
2017-10-23T09:54:01.440Z,101046.47
2017-10-23T09:56:28.941Z,101046.59
2017-10-23T09:58:56.455Z,101055.76
2017-10-23T10:01:23.939Z,101048.83
2017-10-23T10:03:51.467Z,101046.73
2017-10-23T10:06:19.076Z,101058.41
2017-10-23T10:08:46.568Z,101051.34
2017-10-23T10:11:14.115Z,101051.61
2017-10-23T10:13:41.604Z,101056.86
2017-10-23T10:16:09.100Z,101056.09
2017-10-23T10:18:36.619Z,101049.36
2017-10-23T10:21:04.119Z,101059.70
2017-10-23T10:23:31.606Z,101060.13
2017-10-23T10:25:59.149Z,101062.44
2017-10-23T10:28:26.644Z,101062.20
2017-10-23T10:30:54.132Z,101062.03
2017-10-23T10:33:21.668Z,101059.00
2017-10-23T10:35:49.163Z,101064.23
2017-10-23T10:38:16.654Z,101059.14
2017-10-23T10:40:44.172Z,101063.70
2017-10-23T10:43:11.667Z,101060.81
2017-10-23T10:45:39.168Z,101064.09
2017-10-23T10:48:06.699Z,101063.70
2017-10-23T10:50:34.190Z,101063.81
2017-10-23T10:53:01.679Z,101055.98
2017-10-23T10:55:29.206Z,101061.59
2017-10-23T10:57:56.690Z,101059.42
2017-10-23T11:00:24.173Z,101060.44
2017-10-23T11:02:51.697Z,101061.98
2017-10-23T11:05:19.189Z,101065.24
2017-10-23T11:07:46.680Z,101068.91
2017-10-23T11:10:14.208Z,101060.95
2017-10-23T11:12:41.691Z,101066.81
2017-10-23T11:15:10.007Z,101063.75
2017-10-23T11:17:37.512Z,101067.27
2017-10-23T11:20:04.998Z,101073.54
2017-10-23T11:22:32.513Z,101069.25
2017-10-23T11:25:00.014Z,101071.06
2017-10-23T11:27:27.492Z,101069.31
2017-10-23T11:29:55.019Z,101070.81
2017-10-23T11:32:22.508Z,101073.06
2017-10-23T11:34:49.993Z,101066.59
2017-10-23T11:37:17.527Z,101072.19
2017-10-23T11:39:45.017Z,101069.73
2017-10-23T11:42:12.507Z,101062.13
2017-10-23T11:44:40.017Z,101069.12
2017-10-23T11:47:07.505Z,101066.74
2017-10-23T11:49:35.017Z,101067.16
2017-10-23T11:52:02.504Z,101069.27
2017-10-23T11:54:30.031Z,101072.13
2017-10-23T11:56:57.511Z,101072.25
2017-10-23T11:59:24.995Z,101074.73
2017-10-23T12:01:52.542Z,101074.92
2017-10-23T12:04:20.031Z,101078.67
2017-10-23T12:06:47.519Z,101076.42
2017-10-23T12:09:15.044Z,101086.11
2017-10-23T12:11:42.533Z,101075.40
2017-10-23T12:14:10.014Z,101073.95
2017-10-23T12:16:37.560Z,101081.92
2017-10-23T12:19:05.049Z,101088.15
2017-10-23T12:21:32.546Z,101082.38
2017-10-23T12:24:00.069Z,101085.16
2017-10-23T12:26:27.549Z,101092.77
2017-10-23T12:28:55.183Z,101092.34
2017-10-23T12:31:22.675Z,101097.11
2017-10-23T12:33:50.161Z,101093.79
2017-10-23T12:36:17.676Z,101093.06
2017-10-23T12:38:45.164Z,101095.30
2017-10-23T12:41:12.658Z,101088.89
2017-10-23T12:43:40.170Z,101090.11
2017-10-23T12:46:07.667Z,101095.81
2017-10-23T12:48:35.192Z,101096.26
2017-10-23T12:51:02.682Z,101097.30
2017-10-23T12:53:30.164Z,101099.41
2017-10-23T12:55:57.679Z,101100.42
2017-10-23T12:58:25.186Z,101099.00
2017-10-23T13:00:52.720Z,101103.07
2017-10-23T13:03:20.211Z,101102.52
2017-10-23T13:05:47.707Z,101106.45
2017-10-23T13:08:15.219Z,101104.75
2017-10-23T13:10:42.751Z,101109.39
2017-10-23T13:13:10.240Z,101113.27
2017-10-23T13:15:37.737Z,101110.58
2017-10-23T13:18:05.256Z,101109.67
2017-10-23T13:20:32.781Z,101108.05
2017-10-23T13:23:00.281Z,101109.88
2017-10-23T13:25:27.795Z,101112.39
2017-10-23T13:27:55.337Z,101111.73
2017-10-23T13:30:22.833Z,101114.77
2017-10-23T13:32:50.339Z,101108.94
2017-10-23T13:35:17.864Z,101116.00
2017-10-23T13:37:45.367Z,101125.38
2017-10-23T13:40:12.882Z,101125.63
2017-10-23T13:42:40.396Z,101124.68
2017-10-23T13:45:07.895Z,101123.98
2017-10-23T13:47:35.410Z,101134.20
2017-10-23T13:50:02.906Z,101128.20
2017-10-23T13:52:30.399Z,101127.92
2017-10-23T13:54:57.935Z,101130.36
2017-10-23T13:57:25.423Z,101138.45
2017-10-23T13:59:52.907Z,101137.31
2017-10-23T14:02:20.436Z,101146.95
2017-10-23T14:04:47.924Z,101146.48
2017-10-23T14:07:15.433Z,101146.42
2017-10-23T14:09:43.014Z,101154.36
2017-10-23T14:12:10.507Z,101151.83
2017-10-23T14:14:37.996Z,101159.36
2017-10-23T14:17:05.546Z,101156.11
2017-10-23T14:19:33.059Z,101155.03
2017-10-23T14:22:00.617Z,101158.20
2017-10-23T14:24:28.159Z,101154.63
2017-10-23T14:26:55.653Z,101157.29
2017-10-23T14:29:23.155Z,101156.05
2017-10-23T14:31:50.684Z,101155.36
2017-10-23T14:34:18.194Z,101166.72
2017-10-23T14:36:45.690Z,101169.09
2017-10-23T14:39:13.201Z,101170.41
2017-10-23T14:41:41.136Z,101175.52
2017-10-23T14:44:08.672Z,101173.33
2017-10-23T14:46:36.160Z,101178.48
2017-10-23T14:49:03.653Z,101178.92
2017-10-23T14:51:31.187Z,101180.00
2017-10-23T14:53:58.684Z,101177.91
2017-10-23T14:56:26.186Z,101186.27
2017-10-23T14:58:53.715Z,101184.08
2017-10-23T15:01:21.203Z,101180.98
2017-10-23T15:03:48.691Z,101185.22
2017-10-23T15:06:16.228Z,101186.29
2017-10-23T15:08:43.719Z,101188.41
2017-10-23T15:11:11.213Z,101191.77
2017-10-23T15:13:38.748Z,101192.31
2017-10-23T15:16:06.244Z,101192.81
2017-10-23T15:18:33.738Z,101197.34
2017-10-23T15:21:01.259Z,101200.09
2017-10-23T15:23:28.752Z,101204.16
2017-10-23T15:25:56.263Z,101199.89
2017-10-23T15:28:23.759Z,101202.86
2017-10-23T15:30:51.297Z,101202.19
2017-10-23T15:33:18.802Z,101204.94
2017-10-23T15:35:46.291Z,101206.91
2017-10-23T15:38:13.810Z,101214.18
2017-10-23T15:40:41.460Z,101215.88
2017-10-23T15:43:08.965Z,101217.70
2017-10-23T15:45:36.464Z,101215.42
2017-10-23T15:48:03.988Z,101216.30
2017-10-23T15:50:31.528Z,101221.13
2017-10-23T15:52:59.027Z,101225.88
2017-10-23T15:55:26.515Z,101225.27
2017-10-23T15:57:54.063Z,101225.00
2017-10-23T16:00:21.552Z,101230.68
2017-10-23T16:02:49.048Z,101233.66
2017-10-23T16:05:16.583Z,101236.87
2017-10-23T16:07:44.077Z,101246.52
2017-10-23T16:10:11.603Z,101248.46
2017-10-23T16:12:39.098Z,101243.50
2017-10-23T16:15:06.596Z,101248.06
2017-10-23T16:17:34.117Z,101250.23
2017-10-23T16:20:01.640Z,101254.07
2017-10-23T16:22:29.135Z,101253.50
2017-10-23T16:24:56.647Z,101261.04
2017-10-23T16:27:24.180Z,101256.97
2017-10-23T16:29:51.827Z,101267.70
2017-10-23T16:32:19.328Z,101267.87
2017-10-23T16:34:46.839Z,101266.27
2017-10-23T16:37:14.371Z,101270.01
2017-10-23T16:39:41.854Z,101277.95
2017-10-23T16:42:09.348Z,101277.16
2017-10-23T16:44:36.859Z,101279.86
2017-10-23T16:47:04.345Z,101278.95
2017-10-23T16:49:31.988Z,101283.19
2017-10-23T16:51:59.511Z,101294.66
2017-10-23T16:54:27.002Z,101294.70
2017-10-23T16:56:54.543Z,101298.77
2017-10-23T16:59:22.045Z,101294.26
2017-10-23T17:01:49.543Z,101297.59
2017-10-23T17:04:17.051Z,101297.54
2017-10-23T17:06:44.544Z,101302.05
2017-10-23T17:09:12.068Z,101303.41
2017-10-23T17:11:39.569Z,101302.74
2017-10-23T17:14:07.065Z,101305.17
2017-10-23T17:16:34.598Z,101308.56
2017-10-23T17:19:02.092Z,101317.68
2017-10-23T17:21:29.582Z,101325.56
2017-10-23T17:23:57.223Z,101328.11
2017-10-23T17:26:24.783Z,101329.89
2017-10-23T17:28:52.276Z,101334.50
2017-10-23T17:31:19.832Z,101331.70
2017-10-23T17:33:47.330Z,101339.73
2017-10-23T17:36:14.850Z,101340.06
2017-10-23T17:38:42.345Z,101346.45
2017-10-23T17:41:09.852Z,101342.70
2017-10-23T17:43:37.401Z,101348.59
2017-10-23T17:46:04.895Z,101349.51
2017-10-23T17:48:32.388Z,101343.78
2017-10-23T17:50:59.932Z,101351.31
2017-10-23T17:53:27.423Z,101359.47
2017-10-23T17:55:54.922Z,101363.22
2017-10-23T17:58:22.475Z,101363.34
2017-10-23T18:00:49.965Z,101367.08
2017-10-23T18:03:17.459Z,101362.88
2017-10-23T18:05:45.047Z,101366.95
2017-10-23T18:08:12.537Z,101366.55
2017-10-23T18:10:40.025Z,101375.23
2017-10-23T18:13:07.549Z,101380.67
2017-10-23T18:15:35.052Z,101375.28
2017-10-23T18:18:02.549Z,101378.72
2017-10-23T18:20:30.178Z,101383.95
2017-10-23T18:22:57.677Z,101381.77
2017-10-23T18:25:25.179Z,101377.52
2017-10-23T18:27:52.706Z,101383.94
2017-10-23T18:30:20.198Z,101378.76
2017-10-23T18:32:47.696Z,101385.76
2017-10-23T18:35:15.341Z,101391.55
2017-10-23T18:37:42.833Z,101389.83
2017-10-23T18:40:10.326Z,101393.11
2017-10-23T18:42:37.851Z,101396.66
2017-10-23T18:45:05.355Z,101398.88
2017-10-23T18:47:32.850Z,101397.92
2017-10-23T18:50:00.404Z,101400.31
2017-10-23T18:52:27.910Z,101405.09
2017-10-23T18:54:55.408Z,101401.72
2017-10-23T18:57:22.945Z,101400.73
2017-10-23T18:59:50.440Z,101399.79
2017-10-23T19:02:17.933Z,101405.97
2017-10-23T19:04:45.456Z,101412.55
2017-10-23T19:07:12.984Z,101414.03
2017-10-23T19:09:40.472Z,101413.91
2017-10-23T19:12:07.973Z,101406.50
2017-10-23T19:14:35.499Z,101409.95
2017-10-23T19:17:03.004Z,101414.77
2017-10-23T19:19:30.535Z,101418.43
2017-10-23T19:21:58.028Z,101414.68
2017-10-23T19:24:25.520Z,101417.28
2017-10-23T19:26:53.043Z,101420.31
2017-10-23T19:29:20.552Z,101416.95
2017-10-23T19:31:48.099Z,101425.09
2017-10-23T19:34:15.594Z,101419.67
2017-10-23T19:36:43.093Z,101421.23
2017-10-23T19:39:10.657Z,101426.25
2017-10-23T19:41:38.155Z,101426.78
2017-10-23T19:44:05.654Z,101433.37
2017-10-23T19:46:33.179Z,101428.59
2017-10-23T19:49:00.678Z,101423.89
2017-10-23T19:51:28.166Z,101433.11
2017-10-23T19:53:55.706Z,101430.48
2017-10-23T19:56:23.200Z,101433.43
2017-10-23T19:58:50.694Z,101436.56
2017-10-23T20:01:18.235Z,101436.15
2017-10-23T20:03:45.732Z,101436.23
2017-10-23T20:06:13.223Z,101437.80
2017-10-23T20:08:40.760Z,101441.45
2017-10-23T20:11:08.271Z,101444.47
2017-10-23T20:13:35.769Z,101455.66
2017-10-23T20:16:03.320Z,101456.60
2017-10-23T20:18:30.832Z,101457.34
2017-10-23T20:20:58.322Z,101457.98
2017-10-23T20:23:25.852Z,101462.30
2017-10-23T20:25:53.350Z,101454.59
2017-10-23T20:28:20.986Z,101458.45
2017-10-23T20:30:48.481Z,101450.13
2017-10-23T20:33:15.975Z,101457.06
2017-10-23T20:35:43.505Z,101462.52
2017-10-23T20:38:11.004Z,101460.44
2017-10-23T20:40:38.492Z,101467.04
2017-10-23T20:43:06.140Z,101471.55
2017-10-23T20:45:33.638Z,101471.87
2017-10-23T20:48:01.131Z,101471.55
2017-10-23T20:50:28.654Z,101477.42
2017-10-23T20:52:56.144Z,101482.77
2017-10-23T20:55:23.639Z,101481.00
2017-10-23T20:57:51.164Z,101478.09
2017-10-23T21:00:18.657Z,101476.85
2017-10-23T21:02:46.188Z,101474.37
2017-10-23T21:05:13.679Z,101476.25
2017-10-23T21:07:41.172Z,101481.25
2017-10-23T21:10:08.684Z,101474.27
2017-10-23T21:12:36.183Z,101482.73
2017-10-23T21:15:03.720Z,101478.44
2017-10-23T21:17:31.219Z,101480.83
2017-10-23T21:19:58.710Z,101480.09
2017-10-23T21:22:26.339Z,101481.64
2017-10-23T21:24:53.835Z,101481.55
2017-10-23T21:27:21.324Z,101477.28
2017-10-23T21:29:48.909Z,101481.77
2017-10-23T21:32:16.408Z,101486.96
2017-10-23T21:34:43.903Z,101488.73
2017-10-23T21:37:11.492Z,101491.85
2017-10-23T21:39:38.983Z,101495.07
2017-10-23T21:42:06.477Z,101499.97
2017-10-23T21:44:33.996Z,101499.03
2017-10-23T21:47:10.105Z,101500.18
2017-10-23T21:49:37.605Z,101501.50
2017-10-23T21:52:05.098Z,101499.33
2017-10-23T21:54:32.738Z,101502.95
2017-10-23T21:57:00.230Z,101503.26
2017-10-23T21:59:27.718Z,101500.36
2017-10-23T22:01:55.230Z,101513.16
2017-10-23T22:04:22.754Z,101507.32
2017-10-23T22:06:50.253Z,101509.00
2017-10-23T22:11:51.463Z,101523.90
2017-10-23T22:14:18.947Z,101522.96
2017-10-23T22:16:46.441Z,101518.05
2017-10-23T22:19:14.081Z,101525.53
2017-10-23T22:21:42.257Z,101525.42
2017-10-23T22:24:09.738Z,101522.27
2017-10-23T22:26:37.280Z,101531.83
2017-10-23T22:29:04.790Z,101529.23
2017-10-23T22:31:32.290Z,101535.05
2017-10-23T22:33:59.838Z,101530.81
2017-10-23T22:36:27.329Z,101534.64
2017-10-23T22:38:54.815Z,101536.00
2017-10-23T22:41:22.352Z,101543.06
2017-10-23T22:43:49.836Z,101533.89
2017-10-23T22:46:17.323Z,101536.79
2017-10-23T22:48:44.833Z,101536.38
2017-10-23T22:51:12.317Z,101539.16
2017-10-23T22:53:39.844Z,101540.70
2017-10-23T22:56:07.358Z,101541.41
2017-10-23T22:58:34.850Z,101539.75
2017-10-23T23:01:02.383Z,101545.58
2017-10-23T23:03:29.876Z,101547.75
2017-10-23T23:05:57.364Z,101552.00
2017-10-23T23:08:24.886Z,101551.36
2017-10-23T23:10:52.382Z,101553.31
2017-10-23T23:13:19.869Z,101560.77
2017-10-23T23:15:47.391Z,101561.66
2017-10-23T23:18:14.885Z,101563.08
2017-10-23T23:20:42.380Z,101560.98
2017-10-23T23:23:09.892Z,101569.56
2017-10-23T23:25:37.385Z,101566.95
2017-10-23T23:30:38.649Z,101563.59
2017-10-23T23:33:06.277Z,101568.48
2017-10-23T23:35:33.763Z,101569.50
2017-10-23T23:38:01.259Z,101576.13
2017-10-23T23:40:28.812Z,101577.13
2017-10-23T23:42:56.299Z,101577.75
2017-10-23T23:45:23.791Z,101586.44
2017-10-23T23:47:51.310Z,101588.09
2017-10-23T23:50:18.793Z,101592.97
2017-10-23T23:52:46.285Z,101588.45
2017-10-23T23:55:13.912Z,101591.03
2017-10-23T23:57:41.395Z,101595.36
